sensor_id;sensor_type;location;lat;lon;timestamp;temperature;humidity
11700;DHT22;5906;51.660;6.674;2023-03-12T00:00:11;1.10;99.90
11700;DHT22;5906;51.660;6.674;2023-03-12T00:02:38;1.10;99.90
11700;DHT22;5906;51.660;6.674;2023-03-12T00:05:06;1.10;99.90
11700;DHT22;5906;51.660;6.674;2023-03-12T00:07:33;1.10;99.90
11700;DHT22;5906;51.660;6.674;2023-03-12T00:10:03;1.10;99.90
11700;DHT22;5906;51.660;6.674;2023-03-12T00:12:30;1.10;99.90
11700;DHT22;5906;51.660;6.674;2023-03-12T00:14:57;1.10;99.90
11700;DHT22;5906;51.660;6.674;2023-03-12T00:17:25;1.10;99.90
11700;DHT22;5906;51.660;6.674;2023-03-12T00:19:52;1.20;99.90
11700;DHT22;5906;51.660;6.674;2023-03-12T00:22:19;1.10;99.90
11700;DHT22;5906;51.660;6.674;2023-03-12T00:24:54;1.20;99.90
11700;DHT22;5906;51.660;6.674;2023-03-12T00:27:22;1.20;99.90
11700;DHT22;5906;51.660;6.674;2023-03-12T00:29:49;1.20;99.90
11700;DHT22;5906;51.660;6.674;2023-03-12T00:32:18;1.30;99.90
11700;DHT22;5906;51.660;6.674;2023-03-12T00:34:53;1.30;99.90
11700;DHT22;5906;51.660;6.674;2023-03-12T00:37:21;1.30;99.90
11700;DHT22;5906;51.660;6.674;2023-03-12T00:39:48;1.40;99.90
11700;DHT22;5906;51.660;6.674;2023-03-12T00:42:15;1.40;99.90
11700;DHT22;5906;51.660;6.674;2023-03-12T00:44:43;1.40;99.90
11700;DHT22;5906;51.660;6.674;2023-03-12T00:47:11;1.40;99.90
11700;DHT22;5906;51.660;6.674;2023-03-12T00:49:38;1.50;99.90
11700;DHT22;5906;51.660;6.674;2023-03-12T00:52:05;1.50;99.90
11700;DHT22;5906;51.660;6.674;2023-03-12T00:54:32;1.50;99.90
11700;DHT22;5906;51.660;6.674;2023-03-12T00:56:59;1.50;99.90
11700;DHT22;5906;51.660;6.674;2023-03-12T00:59:26;1.50;99.90
11700;DHT22;5906;51.660;6.674;2023-03-12T01:01:53;1.60;99.90
11700;DHT22;5906;51.660;6.674;2023-03-12T01:04:20;1.60;99.90
11700;DHT22;5906;51.660;6.674;2023-03-12T01:06:47;1.60;99.90
11700;DHT22;5906;51.660;6.674;2023-03-12T01:09:14;1.60;99.90
11700;DHT22;5906;51.660;6.674;2023-03-12T01:11:41;1.70;99.90
11700;DHT22;5906;51.660;6.674;2023-03-12T01:14:08;1.70;99.90
11700;DHT22;5906;51.660;6.674;2023-03-12T01:16:35;1.70;99.90
11700;DHT22;5906;51.660;6.674;2023-03-12T01:19:03;1.70;99.90
11700;DHT22;5906;51.660;6.674;2023-03-12T01:21:31;1.80;99.90
11700;DHT22;5906;51.660;6.674;2023-03-12T01:23:58;1.80;99.90
11700;DHT22;5906;51.660;6.674;2023-03-12T01:26:26;1.80;99.90
11700;DHT22;5906;51.660;6.674;2023-03-12T01:28:53;1.80;99.90
11700;DHT22;5906;51.660;6.674;2023-03-12T01:31:20;1.80;99.90
11700;DHT22;5906;51.660;6.674;2023-03-12T01:33:49;1.90;99.90
11700;DHT22;5906;51.660;6.674;2023-03-12T01:36:23;1.80;99.90
11700;DHT22;5906;51.660;6.674;2023-03-12T01:38:56;1.90;99.90
11700;DHT22;5906;51.660;6.674;2023-03-12T01:41:25;1.80;99.90
11700;DHT22;5906;51.660;6.674;2023-03-12T01:43:52;1.90;99.90
11700;DHT22;5906;51.660;6.674;2023-03-12T01:46:37;1.90;99.90
11700;DHT22;5906;51.660;6.674;2023-03-12T01:49:19;1.90;99.90
11700;DHT22;5906;51.660;6.674;2023-03-12T01:52:03;1.90;99.90
11700;DHT22;5906;51.660;6.674;2023-03-12T01:57:29;2.00;99.90
11700;DHT22;5906;51.660;6.674;2023-03-12T02:00:02;2.00;99.90
11700;DHT22;5906;51.660;6.674;2023-03-12T02:02:31;1.90;99.90
11700;DHT22;5906;51.660;6.674;2023-03-12T02:05:50;2.00;99.90
11700;DHT22;5906;51.660;6.674;2023-03-12T02:07:55;2.00;99.90
11700;DHT22;5906;51.660;6.674;2023-03-12T02:10:24;2.10;99.90
11700;DHT22;5906;51.660;6.674;2023-03-12T02:12:52;2.10;99.90
11700;DHT22;5906;51.660;6.674;2023-03-12T02:15:19;2.10;99.90
11700;DHT22;5906;51.660;6.674;2023-03-12T02:17:46;2.10;99.90
11700;DHT22;5906;51.660;6.674;2023-03-12T02:20:31;2.00;99.90
11700;DHT22;5906;51.660;6.674;2023-03-12T02:23:29;2.10;99.90
11700;DHT22;5906;51.660;6.674;2023-03-12T02:25:59;2.10;99.90
11700;DHT22;5906;51.660;6.674;2023-03-12T02:28:28;2.20;99.90
11700;DHT22;5906;51.660;6.674;2023-03-12T02:31:02;2.10;99.90
11700;DHT22;5906;51.660;6.674;2023-03-12T02:33:29;2.10;99.90
11700;DHT22;5906;51.660;6.674;2023-03-12T02:35:56;2.10;99.90
11700;DHT22;5906;51.660;6.674;2023-03-12T02:41:05;2.10;99.90
11700;DHT22;5906;51.660;6.674;2023-03-12T02:43:36;2.10;99.90
11700;DHT22;5906;51.660;6.674;2023-03-12T02:46:04;2.00;99.90
11700;DHT22;5906;51.660;6.674;2023-03-12T02:48:32;2.00;99.90
11700;DHT22;5906;51.660;6.674;2023-03-12T02:50:59;1.90;99.90
11700;DHT22;5906;51.660;6.674;2023-03-12T02:53:26;2.00;99.90
11700;DHT22;5906;51.660;6.674;2023-03-12T02:55:53;1.90;99.90
11700;DHT22;5906;51.660;6.674;2023-03-12T02:58:21;2.00;99.90
11700;DHT22;5906;51.660;6.674;2023-03-12T03:00:48;2.00;99.90
11700;DHT22;5906;51.660;6.674;2023-03-12T03:03:16;2.00;99.90
11700;DHT22;5906;51.660;6.674;2023-03-12T03:05:43;2.00;99.90
11700;DHT22;5906;51.660;6.674;2023-03-12T03:08:10;1.90;99.90
11700;DHT22;5906;51.660;6.674;2023-03-12T03:10:37;1.90;99.90
11700;DHT22;5906;51.660;6.674;2023-03-12T03:13:05;1.90;99.90
11700;DHT22;5906;51.660;6.674;2023-03-12T03:15:32;1.80;99.90
11700;DHT22;5906;51.660;6.674;2023-03-12T03:17:59;1.90;99.90
11700;DHT22;5906;51.660;6.674;2023-03-12T03:20:30;1.90;99.90
11700;DHT22;5906;51.660;6.674;2023-03-12T03:22:57;1.90;99.90
11700;DHT22;5906;51.660;6.674;2023-03-12T03:25:25;1.90;99.90
11700;DHT22;5906;51.660;6.674;2023-03-12T03:27:52;2.00;99.90
11700;DHT22;5906;51.660;6.674;2023-03-12T03:30:20;2.10;99.90
11700;DHT22;5906;51.660;6.674;2023-03-12T03:32:48;2.10;99.90
11700;DHT22;5906;51.660;6.674;2023-03-12T03:35:16;2.10;99.90
11700;DHT22;5906;51.660;6.674;2023-03-12T03:37:43;2.20;99.90
11700;DHT22;5906;51.660;6.674;2023-03-12T03:40:11;2.20;99.90
11700;DHT22;5906;51.660;6.674;2023-03-12T03:42:39;2.20;99.90
11700;DHT22;5906;51.660;6.674;2023-03-12T03:45:07;2.20;99.90
11700;DHT22;5906;51.660;6.674;2023-03-12T03:47:35;2.20;99.90
11700;DHT22;5906;51.660;6.674;2023-03-12T03:50:04;2.20;99.90
11700;DHT22;5906;51.660;6.674;2023-03-12T03:52:31;2.20;99.90
11700;DHT22;5906;51.660;6.674;2023-03-12T03:54:58;2.30;99.90
11700;DHT22;5906;51.660;6.674;2023-03-12T03:57:26;2.30;99.90
11700;DHT22;5906;51.660;6.674;2023-03-12T03:59:53;2.30;99.90
11700;DHT22;5906;51.660;6.674;2023-03-12T04:02:21;2.30;99.90
11700;DHT22;5906;51.660;6.674;2023-03-12T04:04:48;2.30;99.90
11700;DHT22;5906;51.660;6.674;2023-03-12T04:07:16;2.40;99.90
11700;DHT22;5906;51.660;6.674;2023-03-12T04:09:43;2.50;99.90
11700;DHT22;5906;51.660;6.674;2023-03-12T04:12:10;2.40;99.90
11700;DHT22;5906;51.660;6.674;2023-03-12T04:14:40;2.40;99.90
11700;DHT22;5906;51.660;6.674;2023-03-12T04:17:08;2.40;99.90
11700;DHT22;5906;51.660;6.674;2023-03-12T04:19:35;2.50;99.90
11700;DHT22;5906;51.660;6.674;2023-03-12T04:22:02;2.50;99.90
11700;DHT22;5906;51.660;6.674;2023-03-12T04:24:29;2.50;99.90
11700;DHT22;5906;51.660;6.674;2023-03-12T04:26:56;2.50;99.90
11700;DHT22;5906;51.660;6.674;2023-03-12T04:29:25;2.60;99.90
11700;DHT22;5906;51.660;6.674;2023-03-12T04:31:52;2.60;99.90
11700;DHT22;5906;51.660;6.674;2023-03-12T04:34:20;2.60;99.90
11700;DHT22;5906;51.660;6.674;2023-03-12T04:36:47;2.60;99.90
11700;DHT22;5906;51.660;6.674;2023-03-12T04:39:19;2.60;99.90
11700;DHT22;5906;51.660;6.674;2023-03-12T04:41:46;2.50;99.90
11700;DHT22;5906;51.660;6.674;2023-03-12T04:44:13;2.60;99.90
11700;DHT22;5906;51.660;6.674;2023-03-12T04:46:41;2.60;99.90
11700;DHT22;5906;51.660;6.674;2023-03-12T04:49:08;2.70;99.90
11700;DHT22;5906;51.660;6.674;2023-03-12T04:51:35;2.70;99.90
11700;DHT22;5906;51.660;6.674;2023-03-12T04:54:02;2.70;99.90
11700;DHT22;5906;51.660;6.674;2023-03-12T04:56:30;2.70;99.90
11700;DHT22;5906;51.660;6.674;2023-03-12T04:58:57;2.80;99.90
11700;DHT22;5906;51.660;6.674;2023-03-12T05:01:26;2.80;99.90
11700;DHT22;5906;51.660;6.674;2023-03-12T05:03:54;2.80;99.90
11700;DHT22;5906;51.660;6.674;2023-03-12T05:06:22;2.90;99.90
11700;DHT22;5906;51.660;6.674;2023-03-12T05:08:49;2.90;99.90
11700;DHT22;5906;51.660;6.674;2023-03-12T05:11:17;2.90;99.90
11700;DHT22;5906;51.660;6.674;2023-03-12T05:13:45;3.00;99.90
11700;DHT22;5906;51.660;6.674;2023-03-12T05:16:13;3.00;99.90
11700;DHT22;5906;51.660;6.674;2023-03-12T05:18:42;3.00;99.90
11700;DHT22;5906;51.660;6.674;2023-03-12T05:21:15;3.00;99.90
11700;DHT22;5906;51.660;6.674;2023-03-12T05:23:43;3.00;99.90
11700;DHT22;5906;51.660;6.674;2023-03-12T05:26:37;2.90;99.90
11700;DHT22;5906;51.660;6.674;2023-03-12T05:29:05;3.00;99.90
11700;DHT22;5906;51.660;6.674;2023-03-12T05:31:32;2.90;99.90
11700;DHT22;5906;51.660;6.674;2023-03-12T05:34:02;3.00;99.90
11700;DHT22;5906;51.660;6.674;2023-03-12T05:36:30;3.00;99.90
11700;DHT22;5906;51.660;6.674;2023-03-12T05:38:56;3.00;99.90
11700;DHT22;5906;51.660;6.674;2023-03-12T05:41:26;3.00;99.90
11700;DHT22;5906;51.660;6.674;2023-03-12T05:43:54;3.10;99.90
11700;DHT22;5906;51.660;6.674;2023-03-12T05:46:24;3.10;99.90
11700;DHT22;5906;51.660;6.674;2023-03-12T05:48:51;3.00;99.90
11700;DHT22;5906;51.660;6.674;2023-03-12T05:51:18;3.10;99.90
11700;DHT22;5906;51.660;6.674;2023-03-12T05:53:45;3.10;99.90
11700;DHT22;5906;51.660;6.674;2023-03-12T05:56:14;3.10;99.90
11700;DHT22;5906;51.660;6.674;2023-03-12T05:58:43;3.10;99.90
11700;DHT22;5906;51.660;6.674;2023-03-12T06:01:19;3.20;99.90
11700;DHT22;5906;51.660;6.674;2023-03-12T06:03:46;3.20;99.90
11700;DHT22;5906;51.660;6.674;2023-03-12T06:06:14;3.30;99.90
11700;DHT22;5906;51.660;6.674;2023-03-12T06:08:41;3.30;99.90
11700;DHT22;5906;51.660;6.674;2023-03-12T06:11:09;3.20;99.90
11700;DHT22;5906;51.660;6.674;2023-03-12T06:13:36;3.30;99.90
11700;DHT22;5906;51.660;6.674;2023-03-12T06:16:20;3.30;99.90
11700;DHT22;5906;51.660;6.674;2023-03-12T06:18:52;3.30;99.90
11700;DHT22;5906;51.660;6.674;2023-03-12T06:21:22;3.30;99.90
11700;DHT22;5906;51.660;6.674;2023-03-12T06:23:50;3.40;99.90
11700;DHT22;5906;51.660;6.674;2023-03-12T06:26:20;3.40;99.90
11700;DHT22;5906;51.660;6.674;2023-03-12T06:28:49;3.50;99.90
11700;DHT22;5906;51.660;6.674;2023-03-12T06:31:17;3.60;99.90
11700;DHT22;5906;51.660;6.674;2023-03-12T06:33:45;3.60;99.90
11700;DHT22;5906;51.660;6.674;2023-03-12T06:36:12;3.60;99.90
11700;DHT22;5906;51.660;6.674;2023-03-12T06:38:40;3.60;99.90
11700;DHT22;5906;51.660;6.674;2023-03-12T06:41:12;3.60;99.90
11700;DHT22;5906;51.660;6.674;2023-03-12T06:43:41;3.60;99.90
11700;DHT22;5906;51.660;6.674;2023-03-12T06:46:12;3.60;99.90
11700;DHT22;5906;51.660;6.674;2023-03-12T06:48:40;3.50;99.90
11700;DHT22;5906;51.660;6.674;2023-03-12T06:51:09;3.60;99.90
11700;DHT22;5906;51.660;6.674;2023-03-12T06:53:37;3.60;99.90
11700;DHT22;5906;51.660;6.674;2023-03-12T06:56:08;3.70;99.90
11700;DHT22;5906;51.660;6.674;2023-03-12T06:58:36;3.70;99.90
11700;DHT22;5906;51.660;6.674;2023-03-12T07:01:04;3.80;99.90
11700;DHT22;5906;51.660;6.674;2023-03-12T07:03:32;3.80;99.90
11700;DHT22;5906;51.660;6.674;2023-03-12T07:06:00;3.80;99.90
11700;DHT22;5906;51.660;6.674;2023-03-12T07:08:28;3.80;99.90
11700;DHT22;5906;51.660;6.674;2023-03-12T07:10:58;3.90;99.90
11700;DHT22;5906;51.660;6.674;2023-03-12T07:13:29;3.80;99.90
11700;DHT22;5906;51.660;6.674;2023-03-12T07:15:59;3.80;99.90
11700;DHT22;5906;51.660;6.674;2023-03-12T07:18:26;3.80;99.90
11700;DHT22;5906;51.660;6.674;2023-03-12T07:20:54;3.90;99.90
11700;DHT22;5906;51.660;6.674;2023-03-12T07:23:21;3.90;99.90
11700;DHT22;5906;51.660;6.674;2023-03-12T07:25:49;3.80;99.90
11700;DHT22;5906;51.660;6.674;2023-03-12T07:28:16;3.80;99.90
11700;DHT22;5906;51.660;6.674;2023-03-12T07:30:44;3.80;99.90
11700;DHT22;5906;51.660;6.674;2023-03-12T07:33:20;3.80;99.90
11700;DHT22;5906;51.660;6.674;2023-03-12T07:35:48;3.80;99.90
11700;DHT22;5906;51.660;6.674;2023-03-12T07:38:17;3.80;99.90
11700;DHT22;5906;51.660;6.674;2023-03-12T07:40:52;3.90;99.90
11700;DHT22;5906;51.660;6.674;2023-03-12T07:43:20;3.80;99.90
11700;DHT22;5906;51.660;6.674;2023-03-12T07:45:48;3.80;99.90
11700;DHT22;5906;51.660;6.674;2023-03-12T07:48:16;3.80;99.90
11700;DHT22;5906;51.660;6.674;2023-03-12T07:50:45;3.80;99.90
11700;DHT22;5906;51.660;6.674;2023-03-12T07:53:13;3.80;99.90
11700;DHT22;5906;51.660;6.674;2023-03-12T07:55:39;3.90;99.90
11700;DHT22;5906;51.660;6.674;2023-03-12T07:58:09;4.00;99.90
11700;DHT22;5906;51.660;6.674;2023-03-12T08:00:36;4.00;99.90
11700;DHT22;5906;51.660;6.674;2023-03-12T08:03:03;4.10;99.90
11700;DHT22;5906;51.660;6.674;2023-03-12T08:05:32;4.10;99.90
11700;DHT22;5906;51.660;6.674;2023-03-12T08:07:59;4.20;99.90
11700;DHT22;5906;51.660;6.674;2023-03-12T08:10:26;4.20;99.90
11700;DHT22;5906;51.660;6.674;2023-03-12T08:12:53;4.30;99.90
11700;DHT22;5906;51.660;6.674;2023-03-12T08:15:20;4.40;99.90
11700;DHT22;5906;51.660;6.674;2023-03-12T08:17:48;4.40;99.90
11700;DHT22;5906;51.660;6.674;2023-03-12T08:20:15;4.40;99.90
11700;DHT22;5906;51.660;6.674;2023-03-12T08:22:43;4.30;99.90
11700;DHT22;5906;51.660;6.674;2023-03-12T08:25:10;4.40;99.90
11700;DHT22;5906;51.660;6.674;2023-03-12T08:27:38;4.40;99.90
11700;DHT22;5906;51.660;6.674;2023-03-12T08:30:06;4.60;99.90
11700;DHT22;5906;51.660;6.674;2023-03-12T08:32:33;4.60;99.90
11700;DHT22;5906;51.660;6.674;2023-03-12T08:35:00;4.60;99.90
11700;DHT22;5906;51.660;6.674;2023-03-12T08:37:27;4.50;99.90
11700;DHT22;5906;51.660;6.674;2023-03-12T08:39:54;4.50;99.90
11700;DHT22;5906;51.660;6.674;2023-03-12T08:42:21;4.50;99.90
11700;DHT22;5906;51.660;6.674;2023-03-12T08:44:48;4.50;99.90
11700;DHT22;5906;51.660;6.674;2023-03-12T08:47:15;4.50;99.90
11700;DHT22;5906;51.660;6.674;2023-03-12T08:49:42;4.50;99.90
11700;DHT22;5906;51.660;6.674;2023-03-12T08:52:09;4.50;99.90
11700;DHT22;5906;51.660;6.674;2023-03-12T08:54:36;4.60;99.90
11700;DHT22;5906;51.660;6.674;2023-03-12T08:57:03;4.70;99.90
11700;DHT22;5906;51.660;6.674;2023-03-12T08:59:30;4.70;99.90
11700;DHT22;5906;51.660;6.674;2023-03-12T09:01:57;4.60;99.90
11700;DHT22;5906;51.660;6.674;2023-03-12T09:04:24;4.60;99.90
11700;DHT22;5906;51.660;6.674;2023-03-12T09:06:51;4.70;99.90
11700;DHT22;5906;51.660;6.674;2023-03-12T09:09:18;4.80;99.90
11700;DHT22;5906;51.660;6.674;2023-03-12T09:11:45;4.80;99.90
11700;DHT22;5906;51.660;6.674;2023-03-12T09:14:12;4.80;99.90
11700;DHT22;5906;51.660;6.674;2023-03-12T09:16:59;4.70;99.90
11700;DHT22;5906;51.660;6.674;2023-03-12T09:19:28;4.70;99.90
11700;DHT22;5906;51.660;6.674;2023-03-12T09:21:55;4.70;99.90
11700;DHT22;5906;51.660;6.674;2023-03-12T09:24:22;4.70;99.90
11700;DHT22;5906;51.660;6.674;2023-03-12T09:26:52;4.80;99.90
11700;DHT22;5906;51.660;6.674;2023-03-12T09:29:19;4.90;99.90
11700;DHT22;5906;51.660;6.674;2023-03-12T09:31:48;4.80;99.90
11700;DHT22;5906;51.660;6.674;2023-03-12T09:34:15;4.90;99.90
11700;DHT22;5906;51.660;6.674;2023-03-12T09:36:43;4.90;99.90
11700;DHT22;5906;51.660;6.674;2023-03-12T09:39:10;4.90;99.90
11700;DHT22;5906;51.660;6.674;2023-03-12T09:41:38;5.00;99.90
11700;DHT22;5906;51.660;6.674;2023-03-12T09:46:55;5.00;99.90
11700;DHT22;5906;51.660;6.674;2023-03-12T09:49:39;5.10;99.90
11700;DHT22;5906;51.660;6.674;2023-03-12T09:52:28;5.20;99.90
11700;DHT22;5906;51.660;6.674;2023-03-12T09:55:18;5.20;99.90
11700;DHT22;5906;51.660;6.674;2023-03-12T09:57:47;5.20;99.90
11700;DHT22;5906;51.660;6.674;2023-03-12T10:00:18;5.30;99.90
11700;DHT22;5906;51.660;6.674;2023-03-12T10:19:20;5.70;99.90
11700;DHT22;5906;51.660;6.674;2023-03-12T10:27:34;5.80;99.90
11700;DHT22;5906;51.660;6.674;2023-03-12T10:30:23;5.90;99.90
11700;DHT22;5906;51.660;6.674;2023-03-12T10:33:03;5.90;99.90
11700;DHT22;5906;51.660;6.674;2023-03-12T10:35:32;5.90;99.90
11700;DHT22;5906;51.660;6.674;2023-03-12T10:38:01;5.90;99.90
11700;DHT22;5906;51.660;6.674;2023-03-12T10:40:35;6.00;99.90
11700;DHT22;5906;51.660;6.674;2023-03-12T10:43:03;6.10;99.90
11700;DHT22;5906;51.660;6.674;2023-03-12T10:48:23;6.30;99.90
11700;DHT22;5906;51.660;6.674;2023-03-12T10:51:02;6.30;99.90
11700;DHT22;5906;51.660;6.674;2023-03-12T10:53:32;6.40;99.90
11700;DHT22;5906;51.660;6.674;2023-03-12T11:01:02;6.60;99.90
11700;DHT22;5906;51.660;6.674;2023-03-12T11:03:30;6.70;99.90
11700;DHT22;5906;51.660;6.674;2023-03-12T11:05:59;6.80;99.90
11700;DHT22;5906;51.660;6.674;2023-03-12T11:08:30;6.90;99.90
11700;DHT22;5906;51.660;6.674;2023-03-12T11:11:00;7.00;99.90
11700;DHT22;5906;51.660;6.674;2023-03-12T11:13:31;7.10;99.90
11700;DHT22;5906;51.660;6.674;2023-03-12T11:18:56;7.30;99.90
11700;DHT22;5906;51.660;6.674;2023-03-12T11:21:34;7.40;99.90
11700;DHT22;5906;51.660;6.674;2023-03-12T11:24:14;7.60;99.90
11700;DHT22;5906;51.660;6.674;2023-03-12T11:26:48;7.70;99.90
11700;DHT22;5906;51.660;6.674;2023-03-12T11:29:29;7.80;99.90
11700;DHT22;5906;51.660;6.674;2023-03-12T11:32:09;7.80;99.90
11700;DHT22;5906;51.660;6.674;2023-03-12T11:34:37;7.90;99.90
11700;DHT22;5906;51.660;6.674;2023-03-12T11:56:24;8.80;99.90
11700;DHT22;5906;51.660;6.674;2023-03-12T12:04:48;8.80;99.90
11700;DHT22;5906;51.660;6.674;2023-03-12T12:09:50;9.00;99.90
11700;DHT22;5906;51.660;6.674;2023-03-12T12:12:42;9.00;99.90
11700;DHT22;5906;51.660;6.674;2023-03-12T12:15:36;9.20;99.90
11700;DHT22;5906;51.660;6.674;2023-03-12T12:18:11;9.30;99.90
11700;DHT22;5906;51.660;6.674;2023-03-12T12:23:30;9.50;99.90
11700;DHT22;5906;51.660;6.674;2023-03-12T12:26:08;9.60;99.90
11700;DHT22;5906;51.660;6.674;2023-03-12T12:31:40;9.80;99.90
11700;DHT22;5906;51.660;6.674;2023-03-12T12:34:25;10.00;99.90
11700;DHT22;5906;51.660;6.674;2023-03-12T12:37:19;10.00;99.90
11700;DHT22;5906;51.660;6.674;2023-03-12T12:39:54;10.10;99.90
11700;DHT22;5906;51.660;6.674;2023-03-12T12:42:28;10.10;99.90
11700;DHT22;5906;51.660;6.674;2023-03-12T12:44:59;10.10;99.90
11700;DHT22;5906;51.660;6.674;2023-03-12T12:47:41;10.10;99.90
11700;DHT22;5906;51.660;6.674;2023-03-12T12:50:17;10.20;99.90
11700;DHT22;5906;51.660;6.674;2023-03-12T12:52:51;10.40;99.90
11700;DHT22;5906;51.660;6.674;2023-03-12T12:55:27;10.50;99.90
11700;DHT22;5906;51.660;6.674;2023-03-12T12:58:41;10.70;99.90
11700;DHT22;5906;51.660;6.674;2023-03-12T13:01:09;10.90;99.90
11700;DHT22;5906;51.660;6.674;2023-03-12T13:03:37;11.10;99.90
11700;DHT22;5906;51.660;6.674;2023-03-12T13:06:05;11.20;99.90
11700;DHT22;5906;51.660;6.674;2023-03-12T13:24:46;11.70;99.90
11700;DHT22;5906;51.660;6.674;2023-03-12T13:27:24;11.80;99.90
11700;DHT22;5906;51.660;6.674;2023-03-12T13:29:54;11.80;99.90
11700;DHT22;5906;51.660;6.674;2023-03-12T13:32:37;12.00;99.90
11700;DHT22;5906;51.660;6.674;2023-03-12T13:45:57;12.30;99.90
11700;DHT22;5906;51.660;6.674;2023-03-12T13:48:25;12.30;99.90
11700;DHT22;5906;51.660;6.674;2023-03-12T13:50:56;12.30;99.90
11700;DHT22;5906;51.660;6.674;2023-03-12T13:53:33;12.40;99.90
11700;DHT22;5906;51.660;6.674;2023-03-12T13:56:06;12.40;99.90
11700;DHT22;5906;51.660;6.674;2023-03-12T14:01:39;12.60;99.90
11700;DHT22;5906;51.660;6.674;2023-03-12T14:04:13;12.70;99.90
11700;DHT22;5906;51.660;6.674;2023-03-12T14:07:03;12.70;99.90
11700;DHT22;5906;51.660;6.674;2023-03-12T14:18:17;12.40;99.90
11700;DHT22;5906;51.660;6.674;2023-03-12T14:20:57;12.30;99.90
11700;DHT22;5906;51.660;6.674;2023-03-12T14:23:28;12.40;99.90
11700;DHT22;5906;51.660;6.674;2023-03-12T14:26:01;12.30;99.90
11700;DHT22;5906;51.660;6.674;2023-03-12T14:28:31;12.30;99.90
11700;DHT22;5906;51.660;6.674;2023-03-12T14:31:09;12.30;99.90
11700;DHT22;5906;51.660;6.674;2023-03-12T14:39:38;12.20;99.90
11700;DHT22;5906;51.660;6.674;2023-03-12T14:42:08;12.30;99.90
11700;DHT22;5906;51.660;6.674;2023-03-12T14:44:37;12.30;99.90
11700;DHT22;5906;51.660;6.674;2023-03-12T14:47:07;12.30;99.90
11700;DHT22;5906;51.660;6.674;2023-03-12T14:49:43;12.30;99.90
11700;DHT22;5906;51.660;6.674;2023-03-12T14:52:33;12.30;99.90
11700;DHT22;5906;51.660;6.674;2023-03-12T14:55:03;12.40;40.00
11700;DHT22;5906;51.660;6.674;2023-03-12T14:57:30;12.40;1.00
11700;DHT22;5906;51.660;6.674;2023-03-12T14:59:59;12.40;1.00
11700;DHT22;5906;51.660;6.674;2023-03-12T15:02:28;12.50;99.90
11700;DHT22;5906;51.660;6.674;2023-03-12T15:04:58;12.60;99.90
11700;DHT22;5906;51.660;6.674;2023-03-12T15:07:29;12.60;99.90
11700;DHT22;5906;51.660;6.674;2023-03-12T15:09:57;12.60;99.90
11700;DHT22;5906;51.660;6.674;2023-03-12T15:12:30;12.60;99.90
11700;DHT22;5906;51.660;6.674;2023-03-12T15:15:30;12.60;99.90
11700;DHT22;5906;51.660;6.674;2023-03-12T15:18:17;12.50;99.90
11700;DHT22;5906;51.660;6.674;2023-03-12T15:20:46;12.50;99.90
11700;DHT22;5906;51.660;6.674;2023-03-12T15:23:14;12.40;99.90
11700;DHT22;5906;51.660;6.674;2023-03-12T15:25:43;12.40;99.90
11700;DHT22;5906;51.660;6.674;2023-03-12T15:30:42;12.30;99.90
11700;DHT22;5906;51.660;6.674;2023-03-12T15:35:58;12.20;99.90
11700;DHT22;5906;51.660;6.674;2023-03-12T15:38:28;12.20;99.90
11700;DHT22;5906;51.660;6.674;2023-03-12T15:40:59;12.20;99.90
11700;DHT22;5906;51.660;6.674;2023-03-12T15:43:29;12.20;99.90
11700;DHT22;5906;51.660;6.674;2023-03-12T15:46:04;12.10;99.90
11700;DHT22;5906;51.660;6.674;2023-03-12T15:51:01;12.10;99.90
11700;DHT22;5906;51.660;6.674;2023-03-12T15:53:33;12.10;99.90
11700;DHT22;5906;51.660;6.674;2023-03-12T15:56:19;12.00;99.90
11700;DHT22;5906;51.660;6.674;2023-03-12T15:58:46;12.00;99.90
11700;DHT22;5906;51.660;6.674;2023-03-12T16:01:24;11.90;99.90
11700;DHT22;5906;51.660;6.674;2023-03-12T16:03:53;11.80;99.90
11700;DHT22;5906;51.660;6.674;2023-03-12T16:06:24;11.80;99.90
11700;DHT22;5906;51.660;6.674;2023-03-12T16:11:23;11.80;99.90
11700;DHT22;5906;51.660;6.674;2023-03-12T16:14:36;11.80;99.90
11700;DHT22;5906;51.660;6.674;2023-03-12T16:16:44;11.80;99.90
11700;DHT22;5906;51.660;6.674;2023-03-12T16:19:16;11.80;99.90
11700;DHT22;5906;51.660;6.674;2023-03-12T16:21:44;11.70;99.90
11700;DHT22;5906;51.660;6.674;2023-03-12T16:24:11;11.70;99.90
11700;DHT22;5906;51.660;6.674;2023-03-12T16:26:52;11.70;99.90
11700;DHT22;5906;51.660;6.674;2023-03-12T16:29:21;11.70;99.90
11700;DHT22;5906;51.660;6.674;2023-03-12T16:31:52;11.60;99.90
11700;DHT22;5906;51.660;6.674;2023-03-12T16:34:20;11.60;99.90
11700;DHT22;5906;51.660;6.674;2023-03-12T16:36:48;11.60;99.90
11700;DHT22;5906;51.660;6.674;2023-03-12T16:39:14;11.70;99.90
11700;DHT22;5906;51.660;6.674;2023-03-12T16:41:45;11.60;99.90
11700;DHT22;5906;51.660;6.674;2023-03-12T16:44:16;11.60;99.90
11700;DHT22;5906;51.660;6.674;2023-03-12T16:46:45;11.60;99.90
11700;DHT22;5906;51.660;6.674;2023-03-12T16:49:15;11.60;99.90
11700;DHT22;5906;51.660;6.674;2023-03-12T16:51:43;11.50;99.90
11700;DHT22;5906;51.660;6.674;2023-03-12T16:54:11;11.40;99.90
11700;DHT22;5906;51.660;6.674;2023-03-12T16:56:41;11.40;99.90
11700;DHT22;5906;51.660;6.674;2023-03-12T16:59:20;11.40;99.90
11700;DHT22;5906;51.660;6.674;2023-03-12T17:01:49;11.30;99.90
11700;DHT22;5906;51.660;6.674;2023-03-12T17:04:16;11.30;99.90
11700;DHT22;5906;51.660;6.674;2023-03-12T17:06:43;11.30;99.90
11700;DHT22;5906;51.660;6.674;2023-03-12T17:09:10;11.20;99.90
11700;DHT22;5906;51.660;6.674;2023-03-12T17:11:37;11.20;99.90
11700;DHT22;5906;51.660;6.674;2023-03-12T17:14:18;11.20;99.90
11700;DHT22;5906;51.660;6.674;2023-03-12T17:16:47;11.20;99.90
11700;DHT22;5906;51.660;6.674;2023-03-12T17:19:14;11.20;99.90
11700;DHT22;5906;51.660;6.674;2023-03-12T17:21:41;11.20;99.90
11700;DHT22;5906;51.660;6.674;2023-03-12T17:24:10;11.20;99.90
11700;DHT22;5906;51.660;6.674;2023-03-12T17:26:40;11.30;99.90
11700;DHT22;5906;51.660;6.674;2023-03-12T17:29:07;11.20;99.90
11700;DHT22;5906;51.660;6.674;2023-03-12T17:31:34;11.20;99.90
11700;DHT22;5906;51.660;6.674;2023-03-12T17:34:03;11.20;99.90
11700;DHT22;5906;51.660;6.674;2023-03-12T17:36:30;11.30;99.90
11700;DHT22;5906;51.660;6.674;2023-03-12T17:39:00;11.20;99.90
11700;DHT22;5906;51.660;6.674;2023-03-12T17:41:27;11.20;99.90
11700;DHT22;5906;51.660;6.674;2023-03-12T17:43:56;11.20;99.90
11700;DHT22;5906;51.660;6.674;2023-03-12T17:46:28;11.10;99.90
11700;DHT22;5906;51.660;6.674;2023-03-12T17:48:55;11.20;99.90
11700;DHT22;5906;51.660;6.674;2023-03-12T17:51:22;11.20;99.90
11700;DHT22;5906;51.660;6.674;2023-03-12T17:53:49;11.10;99.90
11700;DHT22;5906;51.660;6.674;2023-03-12T17:56:16;11.10;99.90
11700;DHT22;5906;51.660;6.674;2023-03-12T17:58:44;11.10;99.90
11700;DHT22;5906;51.660;6.674;2023-03-12T18:01:12;11.10;99.90
11700;DHT22;5906;51.660;6.674;2023-03-12T18:03:39;11.10;99.90
11700;DHT22;5906;51.660;6.674;2023-03-12T18:06:07;11.10;99.90
11700;DHT22;5906;51.660;6.674;2023-03-12T18:08:34;11.10;99.90
11700;DHT22;5906;51.660;6.674;2023-03-12T18:11:01;11.10;99.90
11700;DHT22;5906;51.660;6.674;2023-03-12T18:13:29;11.10;99.90
11700;DHT22;5906;51.660;6.674;2023-03-12T18:15:57;11.00;99.90
11700;DHT22;5906;51.660;6.674;2023-03-12T18:18:25;11.00;99.90
11700;DHT22;5906;51.660;6.674;2023-03-12T18:20:52;11.00;99.90
11700;DHT22;5906;51.660;6.674;2023-03-12T18:23:19;10.90;99.90
11700;DHT22;5906;51.660;6.674;2023-03-12T18:25:46;10.90;99.90